San Dimas, California
Current Conditions -  °F | °C
As of 6:53 PM on Saturday 20 Dec 2014 (Local Time) from KONT Reporting Station
Scattered Clouds Scattered Clouds  
Wind Chill: 54°   Ceiling: Unl
Heat Index: 54°   Visibility: 8mi
Dew Point: 47°   Wind: 0mph
Humidity: 77%   Direction: NA
Pressure: 30.14"   Gusts: NA
Location:  34.11°N, 117.8°W
Report Text: KONT 210253Z 00000KT 8SM SCT150 12/08 A3014 RMK AO2 SLP207 T01220083 50005
Loading
Personal Weather Stations






























Interactive Weather Map New forecast layout! Learn more

10-Day Weather Forecast

Advertisements
Track Severe Weather on mobile